sensor_id;sensor_type;location;lat;lon;timestamp;P1;durP1;ratioP1;P2;durP2;ratioP2
16282;SDS011;8249;48.708;9.030;2023-05-10T00:01:35;6.17;;;5.97;;
16282;SDS011;8249;48.708;9.030;2023-05-10T00:04:02;5.80;;;5.60;;
16282;SDS011;8249;48.708;9.030;2023-05-10T00:06:29;4.43;;;4.33;;
16282;SDS011;8249;48.708;9.030;2023-05-10T00:08:57;3.87;;;3.77;;
16282;SDS011;8249;48.708;9.030;2023-05-10T00:11:24;4.03;;;3.93;;
16282;SDS011;8249;48.708;9.030;2023-05-10T00:13:51;4.30;;;3.93;;
16282;SDS011;8249;48.708;9.030;2023-05-10T00:16:18;4.13;;;4.03;;
16282;SDS011;8249;48.708;9.030;2023-05-10T00:18:45;4.07;;;3.97;;
16282;SDS011;8249;48.708;9.030;2023-05-10T00:21:12;4.17;;;4.00;;
16282;SDS011;8249;48.708;9.030;2023-05-10T00:23:39;4.10;;;4.00;;
16282;SDS011;8249;48.708;9.030;2023-05-10T00:26:07;4.50;;;4.40;;
16282;SDS011;8249;48.708;9.030;2023-05-10T00:28:36;4.23;;;4.13;;
16282;SDS011;8249;48.708;9.030;2023-05-10T00:31:03;4.53;;;4.43;;
16282;SDS011;8249;48.708;9.030;2023-05-10T00:33:30;4.63;;;4.53;;
16282;SDS011;8249;48.708;9.030;2023-05-10T00:35:57;4.83;;;4.73;;
16282;SDS011;8249;48.708;9.030;2023-05-10T00:38:24;4.77;;;4.67;;
16282;SDS011;8249;48.708;9.030;2023-05-10T00:40:51;5.57;;;5.37;;
16282;SDS011;8249;48.708;9.030;2023-05-10T00:43:26;5.17;;;4.87;;
16282;SDS011;8249;48.708;9.030;2023-05-10T00:45:53;4.97;;;4.87;;
16282;SDS011;8249;48.708;9.030;2023-05-10T00:48:20;4.30;;;4.20;;
16282;SDS011;8249;48.708;9.030;2023-05-10T00:50:48;5.47;;;5.37;;
16282;SDS011;8249;48.708;9.030;2023-05-10T00:53:15;5.10;;;4.90;;
16282;SDS011;8249;48.708;9.030;2023-05-10T00:55:43;4.80;;;4.70;;
16282;SDS011;8249;48.708;9.030;2023-05-10T00:58:10;5.40;;;5.27;;
16282;SDS011;8249;48.708;9.030;2023-05-10T01:00:39;4.83;;;4.73;;
16282;SDS011;8249;48.708;9.030;2023-05-10T01:03:09;4.77;;;4.67;;
16282;SDS011;8249;48.708;9.030;2023-05-10T01:05:36;3.90;;;3.80;;
16282;SDS011;8249;48.708;9.030;2023-05-10T01:08:03;4.97;;;4.87;;
16282;SDS011;8249;48.708;9.030;2023-05-10T01:10:31;4.90;;;4.80;;
16282;SDS011;8249;48.708;9.030;2023-05-10T01:12:58;5.27;;;5.17;;
16282;SDS011;8249;48.708;9.030;2023-05-10T01:15:25;4.93;;;4.73;;
16282;SDS011;8249;48.708;9.030;2023-05-10T01:17:54;4.20;;;4.10;;
16282;SDS011;8249;48.708;9.030;2023-05-10T01:20:22;5.17;;;4.97;;
16282;SDS011;8249;48.708;9.030;2023-05-10T01:26:07;4.53;;;4.43;;
16282;SDS011;8249;48.708;9.030;2023-05-10T01:32:04;4.60;;;4.50;;
16282;SDS011;8249;48.708;9.030;2023-05-10T01:34:44;5.00;;;4.90;;
16282;SDS011;8249;48.708;9.030;2023-05-10T01:37:20;4.87;;;4.77;;
16282;SDS011;8249;48.708;9.030;2023-05-10T01:39:53;5.80;;;5.70;;
16282;SDS011;8249;48.708;9.030;2023-05-10T01:42:26;4.60;;;4.50;;
16282;SDS011;8249;48.708;9.030;2023-05-10T01:45:00;4.90;;;4.80;;
16282;SDS011;8249;48.708;9.030;2023-05-10T01:47:35;4.73;;;4.63;;
16282;SDS011;8249;48.708;9.030;2023-05-10T01:50:06;5.40;;;5.30;;
16282;SDS011;8249;48.708;9.030;2023-05-10T01:52:41;5.10;;;5.00;;
16282;SDS011;8249;48.708;9.030;2023-05-10T01:55:11;5.17;;;5.07;;
16282;SDS011;8249;48.708;9.030;2023-05-10T01:57:42;4.83;;;4.73;;
16282;SDS011;8249;48.708;9.030;2023-05-10T02:00:11;5.00;;;4.90;;
16282;SDS011;8249;48.708;9.030;2023-05-10T02:02:44;4.40;;;4.30;;
16282;SDS011;8249;48.708;9.030;2023-05-10T02:05:13;4.27;;;4.17;;
16282;SDS011;8249;48.708;9.030;2023-05-10T02:07:42;4.70;;;4.60;;
16282;SDS011;8249;48.708;9.030;2023-05-10T02:10:10;4.33;;;4.23;;
16282;SDS011;8249;48.708;9.030;2023-05-10T02:12:41;4.07;;;3.97;;
16282;SDS011;8249;48.708;9.030;2023-05-10T02:15:10;4.80;;;4.70;;
16282;SDS011;8249;48.708;9.030;2023-05-10T02:17:38;4.47;;;4.37;;
16282;SDS011;8249;48.708;9.030;2023-05-10T02:20:08;4.43;;;4.33;;
16282;SDS011;8249;48.708;9.030;2023-05-10T02:22:36;5.00;;;4.90;;
16282;SDS011;8249;48.708;9.030;2023-05-10T02:25:05;4.53;;;4.43;;
16282;SDS011;8249;48.708;9.030;2023-05-10T02:27:34;5.50;;;5.40;;
16282;SDS011;8249;48.708;9.030;2023-05-10T02:30:03;5.30;;;5.20;;
16282;SDS011;8249;48.708;9.030;2023-05-10T02:32:32;5.70;;;5.60;;
16282;SDS011;8249;48.708;9.030;2023-05-10T02:35:01;5.97;;;5.83;;
16282;SDS011;8249;48.708;9.030;2023-05-10T02:37:31;5.70;;;5.60;;
16282;SDS011;8249;48.708;9.030;2023-05-10T02:40:03;5.70;;;5.60;;
16282;SDS011;8249;48.708;9.030;2023-05-10T02:42:32;6.30;;;6.10;;
16282;SDS011;8249;48.708;9.030;2023-05-10T02:45:04;6.07;;;5.93;;
16282;SDS011;8249;48.708;9.030;2023-05-10T02:47:34;5.40;;;5.30;;
16282;SDS011;8249;48.708;9.030;2023-05-10T02:50:02;5.57;;;5.47;;
16282;SDS011;8249;48.708;9.030;2023-05-10T02:52:37;4.83;;;4.73;;
16282;SDS011;8249;48.708;9.030;2023-05-10T02:55:07;5.23;;;5.13;;
16282;SDS011;8249;48.708;9.030;2023-05-10T02:57:39;4.37;;;4.27;;
16282;SDS011;8249;48.708;9.030;2023-05-10T03:00:09;4.90;;;4.80;;
16282;SDS011;8249;48.708;9.030;2023-05-10T03:02:37;4.40;;;4.30;;
16282;SDS011;8249;48.708;9.030;2023-05-10T03:05:04;4.83;;;4.73;;
16282;SDS011;8249;48.708;9.030;2023-05-10T03:07:33;4.77;;;4.67;;
16282;SDS011;8249;48.708;9.030;2023-05-10T03:10:00;4.80;;;4.70;;
16282;SDS011;8249;48.708;9.030;2023-05-10T03:12:31;4.80;;;4.70;;
16282;SDS011;8249;48.708;9.030;2023-05-10T03:15:11;5.10;;;5.00;;
16282;SDS011;8249;48.708;9.030;2023-05-10T03:17:46;4.40;;;4.30;;
16282;SDS011;8249;48.708;9.030;2023-05-10T03:20:20;4.87;;;4.77;;
16282;SDS011;8249;48.708;9.030;2023-05-10T03:22:53;5.00;;;4.90;;
16282;SDS011;8249;48.708;9.030;2023-05-10T03:25:26;4.97;;;4.87;;
16282;SDS011;8249;48.708;9.030;2023-05-10T03:27:55;4.57;;;4.47;;
16282;SDS011;8249;48.708;9.030;2023-05-10T03:30:24;5.57;;;5.23;;
16282;SDS011;8249;48.708;9.030;2023-05-10T03:32:52;4.37;;;4.27;;
16282;SDS011;8249;48.708;9.030;2023-05-10T03:35:19;4.67;;;4.57;;
16282;SDS011;8249;48.708;9.030;2023-05-10T03:37:46;4.60;;;4.50;;
16282;SDS011;8249;48.708;9.030;2023-05-10T03:40:14;5.00;;;4.90;;
16282;SDS011;8249;48.708;9.030;2023-05-10T03:42:42;5.17;;;5.07;;
16282;SDS011;8249;48.708;9.030;2023-05-10T03:45:10;4.50;;;4.40;;
16282;SDS011;8249;48.708;9.030;2023-05-10T03:47:37;4.80;;;4.70;;
16282;SDS011;8249;48.708;9.030;2023-05-10T03:50:04;5.40;;;5.30;;
16282;SDS011;8249;48.708;9.030;2023-05-10T03:52:32;4.90;;;4.80;;
16282;SDS011;8249;48.708;9.030;2023-05-10T03:55:00;4.87;;;4.77;;
16282;SDS011;8249;48.708;9.030;2023-05-10T03:57:30;4.70;;;4.60;;
16282;SDS011;8249;48.708;9.030;2023-05-10T03:59:57;5.27;;;5.07;;
16282;SDS011;8249;48.708;9.030;2023-05-10T04:02:24;5.33;;;5.17;;
16282;SDS011;8249;48.708;9.030;2023-05-10T04:04:52;6.27;;;6.07;;
16282;SDS011;8249;48.708;9.030;2023-05-10T04:07:19;5.90;;;5.80;;
16282;SDS011;8249;48.708;9.030;2023-05-10T04:09:46;6.93;;;6.73;;
16282;SDS011;8249;48.708;9.030;2023-05-10T04:12:13;8.07;;;7.77;;
16282;SDS011;8249;48.708;9.030;2023-05-10T04:14:41;8.27;;;8.00;;
16282;SDS011;8249;48.708;9.030;2023-05-10T04:17:08;7.57;;;7.37;;
16282;SDS011;8249;48.708;9.030;2023-05-10T04:19:35;7.83;;;7.63;;
16282;SDS011;8249;48.708;9.030;2023-05-10T04:22:02;8.27;;;8.03;;
16282;SDS011;8249;48.708;9.030;2023-05-10T04:24:29;6.27;;;6.10;;
16282;SDS011;8249;48.708;9.030;2023-05-10T04:26:56;7.17;;;6.97;;
16282;SDS011;8249;48.708;9.030;2023-05-10T04:29:23;8.13;;;7.83;;
16282;SDS011;8249;48.708;9.030;2023-05-10T04:31:51;7.93;;;7.73;;
16282;SDS011;8249;48.708;9.030;2023-05-10T04:34:20;7.40;;;7.20;;
16282;SDS011;8249;48.708;9.030;2023-05-10T04:36:47;7.53;;;7.33;;
16282;SDS011;8249;48.708;9.030;2023-05-10T04:39:13;7.97;;;7.70;;
16282;SDS011;8249;48.708;9.030;2023-05-10T04:41:40;6.40;;;6.20;;
16282;SDS011;8249;48.708;9.030;2023-05-10T04:44:07;6.30;;;6.10;;
16282;SDS011;8249;48.708;9.030;2023-05-10T04:46:34;6.77;;;6.57;;
16282;SDS011;8249;48.708;9.030;2023-05-10T04:49:02;5.50;;;5.40;;
16282;SDS011;8249;48.708;9.030;2023-05-10T04:51:29;5.23;;;5.03;;
16282;SDS011;8249;48.708;9.030;2023-05-10T04:53:57;6.57;;;6.37;;
16282;SDS011;8249;48.708;9.030;2023-05-10T04:56:23;5.07;;;4.97;;
16282;SDS011;8249;48.708;9.030;2023-05-10T04:58:50;4.87;;;4.77;;
16282;SDS011;8249;48.708;9.030;2023-05-10T05:01:17;5.00;;;4.80;;
16282;SDS011;8249;48.708;9.030;2023-05-10T05:03:44;5.93;;;5.83;;
16282;SDS011;8249;48.708;9.030;2023-05-10T05:06:12;4.97;;;4.87;;
16282;SDS011;8249;48.708;9.030;2023-05-10T05:08:39;5.30;;;5.00;;
16282;SDS011;8249;48.708;9.030;2023-05-10T05:11:06;4.97;;;4.87;;
16282;SDS011;8249;48.708;9.030;2023-05-10T05:13:33;5.03;;;4.93;;
16282;SDS011;8249;48.708;9.030;2023-05-10T05:16:00;5.93;;;5.63;;
16282;SDS011;8249;48.708;9.030;2023-05-10T05:18:27;4.97;;;4.87;;
16282;SDS011;8249;48.708;9.030;2023-05-10T05:20:54;5.00;;;4.90;;
16282;SDS011;8249;48.708;9.030;2023-05-10T05:23:22;4.80;;;4.70;;
16282;SDS011;8249;48.708;9.030;2023-05-10T05:25:51;6.43;;;6.23;;
16282;SDS011;8249;48.708;9.030;2023-05-10T05:28:18;4.40;;;4.30;;
16282;SDS011;8249;48.708;9.030;2023-05-10T05:30:44;4.87;;;4.73;;
16282;SDS011;8249;48.708;9.030;2023-05-10T05:33:12;4.33;;;4.23;;
16282;SDS011;8249;48.708;9.030;2023-05-10T05:35:40;4.70;;;4.60;;
16282;SDS011;8249;48.708;9.030;2023-05-10T05:38:08;4.00;;;3.90;;
16282;SDS011;8249;48.708;9.030;2023-05-10T05:40:36;4.60;;;4.50;;
16282;SDS011;8249;48.708;9.030;2023-05-10T05:43:03;4.60;;;4.40;;
16282;SDS011;8249;48.708;9.030;2023-05-10T05:45:30;4.80;;;4.70;;
16282;SDS011;8249;48.708;9.030;2023-05-10T05:47:57;5.03;;;4.83;;
16282;SDS011;8249;48.708;9.030;2023-05-10T05:50:24;4.87;;;4.77;;
16282;SDS011;8249;48.708;9.030;2023-05-10T05:52:51;4.63;;;4.53;;
16282;SDS011;8249;48.708;9.030;2023-05-10T05:55:17;4.30;;;4.20;;
16282;SDS011;8249;48.708;9.030;2023-05-10T05:57:46;3.97;;;3.87;;
16282;SDS011;8249;48.708;9.030;2023-05-10T06:00:13;3.80;;;3.70;;
16282;SDS011;8249;48.708;9.030;2023-05-10T06:02:40;3.40;;;3.30;;
16282;SDS011;8249;48.708;9.030;2023-05-10T06:05:07;4.00;;;3.90;;
16282;SDS011;8249;48.708;9.030;2023-05-10T06:07:35;3.80;;;3.60;;
16282;SDS011;8249;48.708;9.030;2023-05-10T06:10:02;2.87;;;2.87;;
16282;SDS011;8249;48.708;9.030;2023-05-10T06:12:29;3.07;;;3.07;;
16282;SDS011;8249;48.708;9.030;2023-05-10T06:14:57;3.30;;;3.20;;
16282;SDS011;8249;48.708;9.030;2023-05-10T06:17:24;3.67;;;3.57;;
16282;SDS011;8249;48.708;9.030;2023-05-10T06:19:51;3.23;;;3.20;;
16282;SDS011;8249;48.708;9.030;2023-05-10T06:22:18;3.27;;;3.17;;
16282;SDS011;8249;48.708;9.030;2023-05-10T06:24:46;3.10;;;3.10;;
16282;SDS011;8249;48.708;9.030;2023-05-10T06:27:13;3.83;;;3.73;;
16282;SDS011;8249;48.708;9.030;2023-05-10T06:29:40;4.20;;;3.57;;
16282;SDS011;8249;48.708;9.030;2023-05-10T06:32:08;3.30;;;3.20;;
16282;SDS011;8249;48.708;9.030;2023-05-10T06:34:35;3.13;;;2.93;;
16282;SDS011;8249;48.708;9.030;2023-05-10T06:37:02;2.97;;;2.97;;
16282;SDS011;8249;48.708;9.030;2023-05-10T06:39:29;3.57;;;3.47;;
16282;SDS011;8249;48.708;9.030;2023-05-10T06:41:56;2.87;;;2.77;;
16282;SDS011;8249;48.708;9.030;2023-05-10T06:44:27;3.07;;;2.97;;
16282;SDS011;8249;48.708;9.030;2023-05-10T06:46:54;3.27;;;3.17;;
16282;SDS011;8249;48.708;9.030;2023-05-10T06:49:23;3.60;;;3.50;;
16282;SDS011;8249;48.708;9.030;2023-05-10T06:51:50;3.30;;;3.10;;
16282;SDS011;8249;48.708;9.030;2023-05-10T06:54:17;2.70;;;2.70;;
16282;SDS011;8249;48.708;9.030;2023-05-10T06:56:44;2.93;;;2.93;;
16282;SDS011;8249;48.708;9.030;2023-05-10T06:59:11;2.67;;;2.60;;
16282;SDS011;8249;48.708;9.030;2023-05-10T07:01:38;2.97;;;2.97;;
16282;SDS011;8249;48.708;9.030;2023-05-10T07:04:06;2.53;;;2.53;;
16282;SDS011;8249;48.708;9.030;2023-05-10T07:06:34;3.07;;;2.53;;
16282;SDS011;8249;48.708;9.030;2023-05-10T07:09:01;3.27;;;3.17;;
16282;SDS011;8249;48.708;9.030;2023-05-10T07:11:28;3.30;;;2.97;;
16282;SDS011;8249;48.708;9.030;2023-05-10T07:13:55;2.53;;;2.53;;
16282;SDS011;8249;48.708;9.030;2023-05-10T07:16:22;3.00;;;2.90;;
16282;SDS011;8249;48.708;9.030;2023-05-10T07:18:49;3.50;;;3.30;;
16282;SDS011;8249;48.708;9.030;2023-05-10T07:21:18;3.27;;;3.27;;
16282;SDS011;8249;48.708;9.030;2023-05-10T07:23:46;2.83;;;2.73;;
16282;SDS011;8249;48.708;9.030;2023-05-10T07:26:13;2.80;;;2.80;;
16282;SDS011;8249;48.708;9.030;2023-05-10T07:28:40;3.03;;;2.93;;
16282;SDS011;8249;48.708;9.030;2023-05-10T07:31:07;3.13;;;3.03;;
16282;SDS011;8249;48.708;9.030;2023-05-10T07:33:34;2.40;;;2.40;;
16282;SDS011;8249;48.708;9.030;2023-05-10T07:36:01;2.87;;;2.80;;
16282;SDS011;8249;48.708;9.030;2023-05-10T07:38:28;2.37;;;2.37;;
16282;SDS011;8249;48.708;9.030;2023-05-10T07:40:56;2.80;;;2.70;;
16282;SDS011;8249;48.708;9.030;2023-05-10T07:43:23;2.60;;;2.50;;
16282;SDS011;8249;48.708;9.030;2023-05-10T07:45:50;2.73;;;2.63;;
16282;SDS011;8249;48.708;9.030;2023-05-10T07:48:17;2.47;;;2.47;;
16282;SDS011;8249;48.708;9.030;2023-05-10T07:50:44;2.70;;;2.53;;
16282;SDS011;8249;48.708;9.030;2023-05-10T07:53:11;2.30;;;2.30;;
16282;SDS011;8249;48.708;9.030;2023-05-10T07:55:38;2.47;;;2.47;;
16282;SDS011;8249;48.708;9.030;2023-05-10T07:58:06;2.40;;;2.40;;
16282;SDS011;8249;48.708;9.030;2023-05-10T08:00:33;2.10;;;2.10;;
16282;SDS011;8249;48.708;9.030;2023-05-10T08:03:00;2.17;;;2.17;;
16282;SDS011;8249;48.708;9.030;2023-05-10T08:05:27;2.23;;;2.23;;
16282;SDS011;8249;48.708;9.030;2023-05-10T08:07:54;2.30;;;2.30;;
16282;SDS011;8249;48.708;9.030;2023-05-10T08:10:21;2.07;;;2.07;;
16282;SDS011;8249;48.708;9.030;2023-05-10T08:12:48;3.53;;;2.63;;
16282;SDS011;8249;48.708;9.030;2023-05-10T08:15:16;2.07;;;2.07;;
16282;SDS011;8249;48.708;9.030;2023-05-10T08:17:43;2.13;;;2.10;;
16282;SDS011;8249;48.708;9.030;2023-05-10T08:20:10;2.40;;;2.40;;
16282;SDS011;8249;48.708;9.030;2023-05-10T08:22:37;2.17;;;2.13;;
16282;SDS011;8249;48.708;9.030;2023-05-10T08:25:05;1.77;;;1.77;;
16282;SDS011;8249;48.708;9.030;2023-05-10T08:27:32;2.00;;;2.00;;
16282;SDS011;8249;48.708;9.030;2023-05-10T08:29:59;1.87;;;1.87;;
16282;SDS011;8249;48.708;9.030;2023-05-10T08:32:27;1.73;;;1.73;;
16282;SDS011;8249;48.708;9.030;2023-05-10T08:34:54;2.00;;;2.00;;
16282;SDS011;8249;48.708;9.030;2023-05-10T08:37:22;1.83;;;1.83;;
16282;SDS011;8249;48.708;9.030;2023-05-10T08:39:50;1.87;;;1.87;;
16282;SDS011;8249;48.708;9.030;2023-05-10T08:42:19;1.93;;;1.93;;
16282;SDS011;8249;48.708;9.030;2023-05-10T08:44:52;2.53;;;2.43;;
16282;SDS011;8249;48.708;9.030;2023-05-10T08:47:20;2.03;;;2.03;;
16282;SDS011;8249;48.708;9.030;2023-05-10T08:49:48;2.40;;;1.97;;
16282;SDS011;8249;48.708;9.030;2023-05-10T08:52:16;2.10;;;2.10;;
16282;SDS011;8249;48.708;9.030;2023-05-10T08:54:44;2.07;;;2.07;;
16282;SDS011;8249;48.708;9.030;2023-05-10T08:57:11;2.00;;;2.00;;
16282;SDS011;8249;48.708;9.030;2023-05-10T08:59:38;2.00;;;2.00;;
16282;SDS011;8249;48.708;9.030;2023-05-10T09:02:05;1.60;;;1.60;;
16282;SDS011;8249;48.708;9.030;2023-05-10T09:04:36;1.73;;;1.73;;
16282;SDS011;8249;48.708;9.030;2023-05-10T09:07:04;1.93;;;1.90;;
16282;SDS011;8249;48.708;9.030;2023-05-10T09:09:31;1.87;;;1.80;;
16282;SDS011;8249;48.708;9.030;2023-05-10T09:12:00;2.10;;;2.00;;
16282;SDS011;8249;48.708;9.030;2023-05-10T09:14:27;2.37;;;2.33;;
16282;SDS011;8249;48.708;9.030;2023-05-10T09:16:54;2.37;;;2.37;;
16282;SDS011;8249;48.708;9.030;2023-05-10T09:19:22;1.87;;;1.87;;
16282;SDS011;8249;48.708;9.030;2023-05-10T09:21:49;1.60;;;1.60;;
16282;SDS011;8249;48.708;9.030;2023-05-10T09:24:17;1.97;;;1.97;;
16282;SDS011;8249;48.708;9.030;2023-05-10T09:26:47;2.03;;;2.03;;
16282;SDS011;8249;48.708;9.030;2023-05-10T09:29:14;1.83;;;1.83;;
16282;SDS011;8249;48.708;9.030;2023-05-10T09:31:45;1.63;;;1.63;;
16282;SDS011;8249;48.708;9.030;2023-05-10T09:34:16;2.43;;;1.87;;
16282;SDS011;8249;48.708;9.030;2023-05-10T09:36:51;1.70;;;1.70;;
16282;SDS011;8249;48.708;9.030;2023-05-10T09:39:20;1.80;;;1.80;;
16282;SDS011;8249;48.708;9.030;2023-05-10T09:41:55;1.77;;;1.77;;
16282;SDS011;8249;48.708;9.030;2023-05-10T09:44:24;1.87;;;1.87;;
16282;SDS011;8249;48.708;9.030;2023-05-10T09:46:52;1.90;;;1.90;;
16282;SDS011;8249;48.708;9.030;2023-05-10T09:49:19;2.43;;;2.43;;
16282;SDS011;8249;48.708;9.030;2023-05-10T09:51:48;2.67;;;2.60;;
16282;SDS011;8249;48.708;9.030;2023-05-10T09:54:28;2.30;;;2.20;;
16282;SDS011;8249;48.708;9.030;2023-05-10T09:56:55;1.83;;;1.83;;
16282;SDS011;8249;48.708;9.030;2023-05-10T09:59:23;1.73;;;1.73;;
16282;SDS011;8249;48.708;9.030;2023-05-10T10:01:51;1.50;;;1.50;;
16282;SDS011;8249;48.708;9.030;2023-05-10T10:04:19;2.10;;;2.00;;
16282;SDS011;8249;48.708;9.030;2023-05-10T10:06:47;2.13;;;2.10;;
16282;SDS011;8249;48.708;9.030;2023-05-10T10:09:26;1.87;;;1.80;;
16282;SDS011;8249;48.708;9.030;2023-05-10T10:11:54;1.97;;;1.87;;
16282;SDS011;8249;48.708;9.030;2023-05-10T10:14:22;1.70;;;1.70;;
16282;SDS011;8249;48.708;9.030;2023-05-10T10:16:49;1.50;;;1.50;;
16282;SDS011;8249;48.708;9.030;2023-05-10T10:19:17;1.55;;;1.55;;
16282;SDS011;8249;48.708;9.030;2023-05-10T10:21:45;1.73;;;1.73;;
16282;SDS011;8249;48.708;9.030;2023-05-10T10:24:12;1.60;;;1.60;;
16282;SDS011;8249;48.708;9.030;2023-05-10T10:26:40;1.50;;;1.50;;
16282;SDS011;8249;48.708;9.030;2023-05-10T10:29:12;1.42;;;1.40;;
16282;SDS011;8249;48.708;9.030;2023-05-10T10:31:47;1.90;;;1.80;;
16282;SDS011;8249;48.708;9.030;2023-05-10T10:34:22;1.60;;;1.60;;
16282;SDS011;8249;48.708;9.030;2023-05-10T10:36:53;1.60;;;1.60;;
16282;SDS011;8249;48.708;9.030;2023-05-10T10:39:21;1.73;;;1.65;;
16282;SDS011;8249;48.708;9.030;2023-05-10T10:41:51;6.45;;;2.35;;
16282;SDS011;8249;48.708;9.030;2023-05-10T10:44:23;1.90;;;1.90;;
16282;SDS011;8249;48.708;9.030;2023-05-10T10:47:01;1.40;;;1.40;;
16282;SDS011;8249;48.708;9.030;2023-05-10T10:49:31;1.50;;;1.50;;
16282;SDS011;8249;48.708;9.030;2023-05-10T10:54:52;1.80;;;1.80;;
16282;SDS011;8249;48.708;9.030;2023-05-10T10:57:22;1.70;;;1.60;;
16282;SDS011;8249;48.708;9.030;2023-05-10T10:59:51;1.70;;;1.70;;
16282;SDS011;8249;48.708;9.030;2023-05-10T11:02:33;1.67;;;1.67;;
16282;SDS011;8249;48.708;9.030;2023-05-10T11:08:11;1.80;;;1.80;;
16282;SDS011;8249;48.708;9.030;2023-05-10T11:10:39;2.00;;;2.00;;
16282;SDS011;8249;48.708;9.030;2023-05-10T11:13:16;1.60;;;1.60;;
16282;SDS011;8249;48.708;9.030;2023-05-10T11:15:52;2.00;;;2.00;;
16282;SDS011;8249;48.708;9.030;2023-05-10T11:18:20;1.40;;;1.40;;
16282;SDS011;8249;48.708;9.030;2023-05-10T11:20:50;2.13;;;2.13;;
16282;SDS011;8249;48.708;9.030;2023-05-10T11:23:18;1.80;;;1.80;;
16282;SDS011;8249;48.708;9.030;2023-05-10T11:25:46;1.70;;;1.70;;
16282;SDS011;8249;48.708;9.030;2023-05-10T11:28:16;2.80;;;2.03;;
16282;SDS011;8249;48.708;9.030;2023-05-10T11:30:45;1.80;;;1.80;;
16282;SDS011;8249;48.708;9.030;2023-05-10T11:33:15;2.03;;;2.03;;
16282;SDS011;8249;48.708;9.030;2023-05-10T11:35:43;1.57;;;1.57;;
16282;SDS011;8249;48.708;9.030;2023-05-10T11:38:10;1.80;;;1.80;;
16282;SDS011;8249;48.708;9.030;2023-05-10T11:40:39;2.20;;;2.20;;
16282;SDS011;8249;48.708;9.030;2023-05-10T11:43:08;1.80;;;1.80;;
16282;SDS011;8249;48.708;9.030;2023-05-10T11:45:37;1.60;;;1.60;;
16282;SDS011;8249;48.708;9.030;2023-05-10T11:48:04;1.40;;;1.40;;
16282;SDS011;8249;48.708;9.030;2023-05-10T11:50:31;2.23;;;2.00;;
16282;SDS011;8249;48.708;9.030;2023-05-10T11:52:58;1.57;;;1.57;;
16282;SDS011;8249;48.708;9.030;2023-05-10T11:55:25;1.60;;;1.60;;
16282;SDS011;8249;48.708;9.030;2023-05-10T11:57:55;1.60;;;1.60;;
16282;SDS011;8249;48.708;9.030;2023-05-10T12:00:26;1.83;;;1.83;;
16282;SDS011;8249;48.708;9.030;2023-05-10T12:02:55;2.20;;;2.00;;
16282;SDS011;8249;48.708;9.030;2023-05-10T12:05:22;2.10;;;1.93;;
16282;SDS011;8249;48.708;9.030;2023-05-10T12:07:50;1.70;;;1.70;;
16282;SDS011;8249;48.708;9.030;2023-05-10T12:10:17;1.80;;;1.80;;
16282;SDS011;8249;48.708;9.030;2023-05-10T12:12:55;1.50;;;1.50;;
16282;SDS011;8249;48.708;9.030;2023-05-10T12:15:23;1.70;;;1.70;;
16282;SDS011;8249;48.708;9.030;2023-05-10T12:17:50;1.50;;;1.50;;
16282;SDS011;8249;48.708;9.030;2023-05-10T12:20:19;1.80;;;1.80;;
16282;SDS011;8249;48.708;9.030;2023-05-10T12:22:49;1.50;;;1.50;;
16282;SDS011;8249;48.708;9.030;2023-05-10T12:25:17;1.60;;;1.60;;
16282;SDS011;8249;48.708;9.030;2023-05-10T12:27:48;1.50;;;1.50;;
16282;SDS011;8249;48.708;9.030;2023-05-10T12:30:20;1.87;;;1.77;;
16282;SDS011;8249;48.708;9.030;2023-05-10T12:32:48;1.70;;;1.70;;
16282;SDS011;8249;48.708;9.030;2023-05-10T12:35:16;1.60;;;1.60;;
16282;SDS011;8249;48.708;9.030;2023-05-10T12:37:47;1.50;;;1.50;;
16282;SDS011;8249;48.708;9.030;2023-05-10T12:40:14;1.57;;;1.57;;
16282;SDS011;8249;48.708;9.030;2023-05-10T12:42:41;1.60;;;1.60;;
16282;SDS011;8249;48.708;9.030;2023-05-10T12:45:10;1.57;;;1.57;;
16282;SDS011;8249;48.708;9.030;2023-05-10T12:47:37;1.70;;;1.70;;
16282;SDS011;8249;48.708;9.030;2023-05-10T12:50:05;1.77;;;1.77;;
16282;SDS011;8249;48.708;9.030;2023-05-10T12:52:32;1.60;;;1.60;;
16282;SDS011;8249;48.708;9.030;2023-05-10T12:55:01;1.60;;;1.60;;
16282;SDS011;8249;48.708;9.030;2023-05-10T12:57:28;1.60;;;1.60;;
16282;SDS011;8249;48.708;9.030;2023-05-10T12:59:55;1.50;;;1.50;;
16282;SDS011;8249;48.708;9.030;2023-05-10T13:02:22;1.90;;;1.90;;
16282;SDS011;8249;48.708;9.030;2023-05-10T13:04:49;1.60;;;1.60;;
16282;SDS011;8249;48.708;9.030;2023-05-10T13:07:17;1.73;;;1.73;;
16282;SDS011;8249;48.708;9.030;2023-05-10T13:09:44;1.73;;;1.73;;
16282;SDS011;8249;48.708;9.030;2023-05-10T13:12:12;2.10;;;2.00;;
16282;SDS011;8249;48.708;9.030;2023-05-10T13:14:39;3.80;;;2.07;;
16282;SDS011;8249;48.708;9.030;2023-05-10T13:17:06;2.00;;;1.90;;
16282;SDS011;8249;48.708;9.030;2023-05-10T13:19:33;1.50;;;1.50;;
16282;SDS011;8249;48.708;9.030;2023-05-10T13:22:01;1.83;;;1.47;;
16282;SDS011;8249;48.708;9.030;2023-05-10T13:24:29;1.97;;;1.97;;
16282;SDS011;8249;48.708;9.030;2023-05-10T13:26:56;1.40;;;1.40;;
16282;SDS011;8249;48.708;9.030;2023-05-10T13:29:25;1.57;;;1.57;;
16282;SDS011;8249;48.708;9.030;2023-05-10T13:31:52;1.60;;;1.60;;
16282;SDS011;8249;48.708;9.030;2023-05-10T13:34:19;1.60;;;1.60;;
16282;SDS011;8249;48.708;9.030;2023-05-10T13:36:46;1.80;;;1.73;;
16282;SDS011;8249;48.708;9.030;2023-05-10T13:39:14;2.00;;;2.00;;
16282;SDS011;8249;48.708;9.030;2023-05-10T13:41:41;1.77;;;1.77;;
16282;SDS011;8249;48.708;9.030;2023-05-10T13:44:08;1.30;;;1.30;;
16282;SDS011;8249;48.708;9.030;2023-05-10T13:46:37;1.43;;;1.43;;
16282;SDS011;8249;48.708;9.030;2023-05-10T13:49:04;1.53;;;1.53;;
16282;SDS011;8249;48.708;9.030;2023-05-10T13:51:32;1.50;;;1.50;;
16282;SDS011;8249;48.708;9.030;2023-05-10T13:54:00;1.80;;;1.80;;
16282;SDS011;8249;48.708;9.030;2023-05-10T13:56:27;1.60;;;1.60;;
16282;SDS011;8249;48.708;9.030;2023-05-10T13:58:55;2.00;;;1.90;;
16282;SDS011;8249;48.708;9.030;2023-05-10T14:01:23;1.80;;;1.80;;
16282;SDS011;8249;48.708;9.030;2023-05-10T14:03:52;1.50;;;1.50;;
16282;SDS011;8249;48.708;9.030;2023-05-10T14:06:19;1.40;;;1.40;;
16282;SDS011;8249;48.708;9.030;2023-05-10T14:08:46;1.50;;;1.50;;
16282;SDS011;8249;48.708;9.030;2023-05-10T14:11:13;1.40;;;1.40;;
16282;SDS011;8249;48.708;9.030;2023-05-10T14:13:40;1.50;;;1.50;;
16282;SDS011;8249;48.708;9.030;2023-05-10T14:16:07;1.43;;;1.43;;
16282;SDS011;8249;48.708;9.030;2023-05-10T14:18:34;1.90;;;1.90;;
16282;SDS011;8249;48.708;9.030;2023-05-10T14:21:03;1.30;;;1.30;;
16282;SDS011;8249;48.708;9.030;2023-05-10T14:23:30;1.70;;;1.70;;
16282;SDS011;8249;48.708;9.030;2023-05-10T14:25:56;1.40;;;1.40;;
16282;SDS011;8249;48.708;9.030;2023-05-10T14:28:24;1.70;;;1.70;;
16282;SDS011;8249;48.708;9.030;2023-05-10T14:30:51;1.67;;;1.67;;
16282;SDS011;8249;48.708;9.030;2023-05-10T14:33:18;1.73;;;1.70;;
16282;SDS011;8249;48.708;9.030;2023-05-10T14:35:46;1.70;;;1.67;;
16282;SDS011;8249;48.708;9.030;2023-05-10T14:38:14;1.30;;;1.30;;
16282;SDS011;8249;48.708;9.030;2023-05-10T14:40:41;1.53;;;1.53;;
16282;SDS011;8249;48.708;9.030;2023-05-10T14:43:09;1.93;;;1.83;;
16282;SDS011;8249;48.708;9.030;2023-05-10T14:45:36;1.63;;;1.63;;
16282;SDS011;8249;48.708;9.030;2023-05-10T14:48:03;1.70;;;1.70;;
16282;SDS011;8249;48.708;9.030;2023-05-10T14:50:30;1.57;;;1.57;;
16282;SDS011;8249;48.708;9.030;2023-05-10T14:52:58;1.77;;;1.70;;
16282;SDS011;8249;48.708;9.030;2023-05-10T14:55:26;1.97;;;1.77;;
16282;SDS011;8249;48.708;9.030;2023-05-10T14:57:53;1.80;;;1.80;;
16282;SDS011;8249;48.708;9.030;2023-05-10T15:00:20;5.63;;;2.47;;
16282;SDS011;8249;48.708;9.030;2023-05-10T15:02:48;1.60;;;1.60;;
16282;SDS011;8249;48.708;9.030;2023-05-10T15:05:15;1.30;;;1.30;;
16282;SDS011;8249;48.708;9.030;2023-05-10T15:07:42;1.47;;;1.47;;
16282;SDS011;8249;48.708;9.030;2023-05-10T15:10:09;1.77;;;1.77;;
16282;SDS011;8249;48.708;9.030;2023-05-10T15:12:38;1.80;;;1.80;;
16282;SDS011;8249;48.708;9.030;2023-05-10T15:15:06;1.60;;;1.60;;
16282;SDS011;8249;48.708;9.030;2023-05-10T15:17:33;1.70;;;1.53;;
16282;SDS011;8249;48.708;9.030;2023-05-10T15:20:00;1.70;;;1.70;;